<?xml version="1.0" encoding="UTF-8" standalone="no" ?>
<gpx xmlns="http://www.topografix.com/GPX/1/1" xmlns:xsi="http://www.w3.org/2001/XMLSchema-instance" xsi:schemaLocation="http://www.topografix.com/GPX/1/1 http://www.topografix.com/GPX/1/1/gpx.xsd" version="1.1" creator="VisuGPX - https://www.visugpx.com">
  <metadata>
    <name>GR5-GTA Valdeblore/Utelle</name>
    <desc><![CDATA[Rando 22/08/2019 GR5-GTA étape valdeblore/Utelle ]]></desc>
  </metadata>
  <trk>
    <name><![CDATA[22-AOU-19 16:22:55]]></name>
    <trkseg>
      <trkpt lat="44.06566" lon="7.20389">
        <ele>1288.78</ele>
        <time>2019-08-21T15:28:54Z</time>
      </trkpt>
      <trkpt lat="44.06566" lon="7.20389">
        <ele>1288.3</ele>
        <time>2019-08-21T15:29:14Z</time>
      </trkpt>
      <trkpt lat="44.06594" lon="7.20402">
        <ele>1255.14</ele>
        <time>2019-08-22T05:02:57Z</time>
      </trkpt>
      <trkpt lat="44.066" lon="7.20356">
        <ele>1286.86</ele>
        <time>2019-08-22T05:05:11Z</time>
      </trkpt>
      <trkpt lat="44.06527" lon="7.20356">
        <ele>1290.23</ele>
        <time>2019-08-22T05:06:46Z</time>
      </trkpt>
      <trkpt lat="44.06444" lon="7.20364">
        <ele>1305.13</ele>
        <time>2019-08-22T05:09:41Z</time>
      </trkpt>
      <trkpt lat="44.06368" lon="7.20372">
        <ele>1321.47</ele>
        <time>2019-08-22T05:12:06Z</time>
      </trkpt>
      <trkpt lat="44.06302" lon="7.20403">
        <ele>1341.18</ele>
        <time>2019-08-22T05:15:08Z</time>
      </trkpt>
      <trkpt lat="44.0623" lon="7.20449">
        <ele>1357.52</ele>
        <time>2019-08-22T05:17:58Z</time>
      </trkpt>
      <trkpt lat="44.06194" lon="7.20524">
        <ele>1381.07</ele>
        <time>2019-08-22T05:21:59Z</time>
      </trkpt>
      <trkpt lat="44.06184" lon="7.20618">
        <ele>1406.55</ele>
        <time>2019-08-22T05:25:26Z</time>
      </trkpt>
      <trkpt lat="44.06142" lon="7.20713">
        <ele>1425.29</ele>
        <time>2019-08-22T05:28:59Z</time>
      </trkpt>
      <trkpt lat="44.06072" lon="7.20774">
        <ele>1444.52</ele>
        <time>2019-08-22T05:32:14Z</time>
      </trkpt>
      <trkpt lat="44.06036" lon="7.20843">
        <ele>1461.82</ele>
        <time>2019-08-22T05:35:16Z</time>
      </trkpt>
      <trkpt lat="44.06056" lon="7.20933">
        <ele>1487.78</ele>
        <time>2019-08-22T05:39:52Z</time>
      </trkpt>
      <trkpt lat="44.05999" lon="7.21013">
        <ele>1515.18</ele>
        <time>2019-08-22T05:43:43Z</time>
      </trkpt>
      <trkpt lat="44.05994" lon="7.21065">
        <ele>1538.73</ele>
        <time>2019-08-22T05:47:51Z</time>
      </trkpt>
      <trkpt lat="44.05967" lon="7.21162">
        <ele>1562.28</ele>
        <time>2019-08-22T05:51:47Z</time>
      </trkpt>
      <trkpt lat="44.05922" lon="7.21259">
        <ele>1586.31</ele>
        <time>2019-08-22T05:55:56Z</time>
      </trkpt>
      <trkpt lat="44.05881" lon="7.21357">
        <ele>1608.9</ele>
        <time>2019-08-22T05:59:58Z</time>
      </trkpt>
      <trkpt lat="44.05822" lon="7.2142">
        <ele>1632.94</ele>
        <time>2019-08-22T06:04:52Z</time>
      </trkpt>
      <trkpt lat="44.05754" lon="7.21476">
        <ele>1656.01</ele>
        <time>2019-08-22T06:08:41Z</time>
      </trkpt>
      <trkpt lat="44.05666" lon="7.21433">
        <ele>1681</ele>
        <time>2019-08-22T06:12:34Z</time>
      </trkpt>
      <trkpt lat="44.05584" lon="7.21376">
        <ele>1696.38</ele>
        <time>2019-08-22T06:15:28Z</time>
      </trkpt>
      <trkpt lat="44.05527" lon="7.21283">
        <ele>1698.31</ele>
        <time>2019-08-22T06:17:18Z</time>
      </trkpt>
      <trkpt lat="44.0544" lon="7.21271">
        <ele>1706.96</ele>
        <time>2019-08-22T06:19:24Z</time>
      </trkpt>
      <trkpt lat="44.05346" lon="7.21272">
        <ele>1711.76</ele>
        <time>2019-08-22T06:21:30Z</time>
      </trkpt>
      <trkpt lat="44.05263" lon="7.21254">
        <ele>1704.55</ele>
        <time>2019-08-22T06:24:25Z</time>
      </trkpt>
      <trkpt lat="44.05193" lon="7.2117">
        <ele>1710.32</ele>
        <time>2019-08-22T06:26:26Z</time>
      </trkpt>
      <trkpt lat="44.05146" lon="7.21106">
        <ele>1728.59</ele>
        <time>2019-08-22T06:29:03Z</time>
      </trkpt>
      <trkpt lat="44.05107" lon="7.21058">
        <ele>1746.85</ele>
        <time>2019-08-22T06:32:20Z</time>
      </trkpt>
      <trkpt lat="44.05116" lon="7.20926">
        <ele>1755.99</ele>
        <time>2019-08-22T06:34:38Z</time>
      </trkpt>
      <trkpt lat="44.05157" lon="7.20808">
        <ele>1758.39</ele>
        <time>2019-08-22T06:36:31Z</time>
      </trkpt>
      <trkpt lat="44.05127" lon="7.20706">
        <ele>1769.92</ele>
        <time>2019-08-22T06:39:18Z</time>
      </trkpt>
      <trkpt lat="44.0506" lon="7.20634">
        <ele>1782.42</ele>
        <time>2019-08-22T06:43:17Z</time>
      </trkpt>
      <trkpt lat="44.04992" lon="7.20573">
        <ele>1793.96</ele>
        <time>2019-08-22T06:45:22Z</time>
      </trkpt>
      <trkpt lat="44.04944" lon="7.2048">
        <ele>1805.01</ele>
        <time>2019-08-22T06:48:04Z</time>
      </trkpt>
      <trkpt lat="44.04889" lon="7.20386">
        <ele>1820.87</ele>
        <time>2019-08-22T06:51:01Z</time>
      </trkpt>
      <trkpt lat="44.04842" lon="7.20284">
        <ele>1834.81</ele>
        <time>2019-08-22T06:53:45Z</time>
      </trkpt>
      <trkpt lat="44.04781" lon="7.202">
        <ele>1843.47</ele>
        <time>2019-08-22T06:56:38Z</time>
      </trkpt>
      <trkpt lat="44.04754" lon="7.20198">
        <ele>1862.21</ele>
        <time>2019-08-22T07:00:34Z</time>
      </trkpt>
      <trkpt lat="44.04734" lon="7.20219">
        <ele>1883.36</ele>
        <time>2019-08-22T07:04:38Z</time>
      </trkpt>
      <trkpt lat="44.04704" lon="7.20169">
        <ele>1903.07</ele>
        <time>2019-08-22T07:08:01Z</time>
      </trkpt>
      <trkpt lat="44.04638" lon="7.2018">
        <ele>1896.82</ele>
        <time>2019-08-22T07:12:45Z</time>
      </trkpt>
      <trkpt lat="44.04559" lon="7.2023">
        <ele>1891.05</ele>
        <time>2019-08-22T07:15:31Z</time>
      </trkpt>
      <trkpt lat="44.0449" lon="7.20297">
        <ele>1887.69</ele>
        <time>2019-08-22T07:17:33Z</time>
      </trkpt>
      <trkpt lat="44.04429" lon="7.20386">
        <ele>1892.97</ele>
        <time>2019-08-22T07:19:40Z</time>
      </trkpt>
      <trkpt lat="44.04352" lon="7.20442">
        <ele>1896.82</ele>
        <time>2019-08-22T07:21:34Z</time>
      </trkpt>
      <trkpt lat="44.04269" lon="7.20485">
        <ele>1906.91</ele>
        <time>2019-08-22T07:23:58Z</time>
      </trkpt>
      <trkpt lat="44.04184" lon="7.20477">
        <ele>1913.64</ele>
        <time>2019-08-22T07:26:08Z</time>
      </trkpt>
      <trkpt lat="44.04096" lon="7.2049">
        <ele>1921.33</ele>
        <time>2019-08-22T07:28:12Z</time>
      </trkpt>
      <trkpt lat="44.04023" lon="7.20449">
        <ele>1935.27</ele>
        <time>2019-08-22T07:31:05Z</time>
      </trkpt>
      <trkpt lat="44.03944" lon="7.20411">
        <ele>1954.02</ele>
        <time>2019-08-22T07:34:21Z</time>
      </trkpt>
      <trkpt lat="44.03918" lon="7.20518">
        <ele>1955.94</ele>
        <time>2019-08-22T07:38:57Z</time>
      </trkpt>
      <trkpt lat="44.03868" lon="7.20618">
        <ele>1955.94</ele>
        <time>2019-08-22T07:40:37Z</time>
      </trkpt>
      <trkpt lat="44.03829" lon="7.20727">
        <ele>1969.88</ele>
        <time>2019-08-22T07:43:14Z</time>
      </trkpt>
      <trkpt lat="44.03784" lon="7.20832">
        <ele>1973.24</ele>
        <time>2019-08-22T07:45:10Z</time>
      </trkpt>
      <trkpt lat="44.03711" lon="7.20887">
        <ele>1980.45</ele>
        <time>2019-08-22T07:47:16Z</time>
      </trkpt>
      <trkpt lat="44.03628" lon="7.20915">
        <ele>1976.61</ele>
        <time>2019-08-22T07:49:39Z</time>
      </trkpt>
      <trkpt lat="44.03574" lon="7.21003">
        <ele>1981.41</ele>
        <time>2019-08-22T07:51:41Z</time>
      </trkpt>
      <trkpt lat="44.0349" lon="7.21055">
        <ele>1987.66</ele>
        <time>2019-08-22T07:54:00Z</time>
      </trkpt>
      <trkpt lat="44.03404" lon="7.21096">
        <ele>1998.24</ele>
        <time>2019-08-22T07:56:42Z</time>
      </trkpt>
      <trkpt lat="44.03323" lon="7.21103">
        <ele>2007.85</ele>
        <time>2019-08-22T07:59:10Z</time>
      </trkpt>
      <trkpt lat="44.03244" lon="7.21144">
        <ele>2008.33</ele>
        <time>2019-08-22T08:01:25Z</time>
      </trkpt>
      <trkpt lat="44.03206" lon="7.21246">
        <ele>1994.87</ele>
        <time>2019-08-22T08:03:27Z</time>
      </trkpt>
      <trkpt lat="44.03217" lon="7.21364">
        <ele>1979.01</ele>
        <time>2019-08-22T08:05:48Z</time>
      </trkpt>
      <trkpt lat="44.03214" lon="7.21482">
        <ele>1967.96</ele>
        <time>2019-08-22T08:07:54Z</time>
      </trkpt>
      <trkpt lat="44.03156" lon="7.21573">
        <ele>1962.19</ele>
        <time>2019-08-22T08:10:00Z</time>
      </trkpt>
      <trkpt lat="44.03085" lon="7.2164">
        <ele>1949.21</ele>
        <time>2019-08-22T08:12:27Z</time>
      </trkpt>
      <trkpt lat="44.03021" lon="7.21703">
        <ele>1940.08</ele>
        <time>2019-08-22T08:14:29Z</time>
      </trkpt>
      <trkpt lat="44.0295" lon="7.2175">
        <ele>1939.6</ele>
        <time>2019-08-22T08:17:19Z</time>
      </trkpt>
      <trkpt lat="44.02894" lon="7.21812">
        <ele>1939.12</ele>
        <time>2019-08-22T08:19:40Z</time>
      </trkpt>
      <trkpt lat="44.02818" lon="7.21874">
        <ele>1932.87</ele>
        <time>2019-08-22T08:21:45Z</time>
      </trkpt>
      <trkpt lat="44.0277" lon="7.21977">
        <ele>1926.62</ele>
        <time>2019-08-22T08:23:30Z</time>
      </trkpt>
      <trkpt lat="44.02704" lon="7.22058">
        <ele>1922.29</ele>
        <time>2019-08-22T08:25:04Z</time>
      </trkpt>
      <trkpt lat="44.02683" lon="7.22178">
        <ele>1918.45</ele>
        <time>2019-08-22T08:26:43Z</time>
      </trkpt>
      <trkpt lat="44.02663" lon="7.22294">
        <ele>1914.6</ele>
        <time>2019-08-22T08:28:21Z</time>
      </trkpt>
      <trkpt lat="44.02593" lon="7.22362">
        <ele>1921.33</ele>
        <time>2019-08-22T08:31:11Z</time>
      </trkpt>
      <trkpt lat="44.02512" lon="7.22433">
        <ele>1932.87</ele>
        <time>2019-08-22T08:34:16Z</time>
      </trkpt>
      <trkpt lat="44.02499" lon="7.22551">
        <ele>1941.04</ele>
        <time>2019-08-22T08:37:17Z</time>
      </trkpt>
      <trkpt lat="44.02473" lon="7.22664">
        <ele>1951.13</ele>
        <time>2019-08-22T08:39:57Z</time>
      </trkpt>
      <trkpt lat="44.02424" lon="7.22778">
        <ele>1946.81</ele>
        <time>2019-08-22T08:42:16Z</time>
      </trkpt>
      <trkpt lat="44.02383" lon="7.22882">
        <ele>1953.06</ele>
        <time>2019-08-22T08:44:11Z</time>
      </trkpt>
      <trkpt lat="44.02308" lon="7.22963">
        <ele>1953.06</ele>
        <time>2019-08-22T08:46:18Z</time>
      </trkpt>
      <trkpt lat="44.02256" lon="7.23061">
        <ele>1949.69</ele>
        <time>2019-08-22T08:48:17Z</time>
      </trkpt>
      <trkpt lat="44.02162" lon="7.23103">
        <ele>1943.44</ele>
        <time>2019-08-22T08:50:13Z</time>
      </trkpt>
      <trkpt lat="44.0207" lon="7.23137">
        <ele>1934.79</ele>
        <time>2019-08-22T08:52:17Z</time>
      </trkpt>
      <trkpt lat="44.02006" lon="7.23205">
        <ele>1943.44</ele>
        <time>2019-08-22T08:55:56Z</time>
      </trkpt>
      <trkpt lat="44.01979" lon="7.23234">
        <ele>1963.63</ele>
        <time>2019-08-22T08:59:47Z</time>
      </trkpt>
      <trkpt lat="44.0191" lon="7.23302">
        <ele>1970.36</ele>
        <time>2019-08-22T09:03:37Z</time>
      </trkpt>
      <trkpt lat="44.01852" lon="7.23405">
        <ele>1967.48</ele>
        <time>2019-08-22T09:06:03Z</time>
      </trkpt>
      <trkpt lat="44.01775" lon="7.23492">
        <ele>1980.45</ele>
        <time>2019-08-22T09:09:23Z</time>
      </trkpt>
      <trkpt lat="44.01749" lon="7.23608">
        <ele>1982.86</ele>
        <time>2019-08-22T09:12:14Z</time>
      </trkpt>
      <trkpt lat="44.01743" lon="7.23693">
        <ele>1979.01</ele>
        <time>2019-08-22T09:15:03Z</time>
      </trkpt>
      <trkpt lat="44.01762" lon="7.23824">
        <ele>1980.93</ele>
        <time>2019-08-22T09:16:54Z</time>
      </trkpt>
      <trkpt lat="44.01757" lon="7.23954">
        <ele>1978.05</ele>
        <time>2019-08-22T09:18:35Z</time>
      </trkpt>
      <trkpt lat="44.01745" lon="7.2408">
        <ele>1977.57</ele>
        <time>2019-08-22T09:20:10Z</time>
      </trkpt>
      <trkpt lat="44.01738" lon="7.24201">
        <ele>1964.11</ele>
        <time>2019-08-22T09:21:51Z</time>
      </trkpt>
      <trkpt lat="44.01696" lon="7.24311">
        <ele>1947.77</ele>
        <time>2019-08-22T09:23:53Z</time>
      </trkpt>
      <trkpt lat="44.01654" lon="7.2442">
        <ele>1932.87</ele>
        <time>2019-08-22T09:26:58Z</time>
      </trkpt>
      <trkpt lat="44.01618" lon="7.24531">
        <ele>1922.29</ele>
        <time>2019-08-22T09:28:48Z</time>
      </trkpt>
      <trkpt lat="44.01571" lon="7.24656">
        <ele>1912.68</ele>
        <time>2019-08-22T09:31:12Z</time>
      </trkpt>
      <trkpt lat="44.01508" lon="7.24744">
        <ele>1891.05</ele>
        <time>2019-08-22T09:33:32Z</time>
      </trkpt>
      <trkpt lat="44.01444" lon="7.24827">
        <ele>1867.5</ele>
        <time>2019-08-22T09:36:08Z</time>
      </trkpt>
      <trkpt lat="44.01382" lon="7.24897">
        <ele>1841.06</ele>
        <time>2019-08-22T09:38:48Z</time>
      </trkpt>
      <trkpt lat="44.01321" lon="7.24832">
        <ele>1817.03</ele>
        <time>2019-08-22T09:41:22Z</time>
      </trkpt>
      <trkpt lat="44.01279" lon="7.24733">
        <ele>1798.28</ele>
        <time>2019-08-22T09:43:30Z</time>
      </trkpt>
      <trkpt lat="44.01273" lon="7.24609">
        <ele>1789.15</ele>
        <time>2019-08-22T09:45:17Z</time>
      </trkpt>
      <trkpt lat="44.01228" lon="7.24586">
        <ele>1780.02</ele>
        <time>2019-08-22T09:47:10Z</time>
      </trkpt>
      <trkpt lat="44.01236" lon="7.24604">
        <ele>1777.61</ele>
        <time>2019-08-22T09:49:45Z</time>
      </trkpt>
      <trkpt lat="44.01207" lon="7.24724">
        <ele>1769.92</ele>
        <time>2019-08-22T09:51:32Z</time>
      </trkpt>
      <trkpt lat="44.01176" lon="7.24803">
        <ele>1757.43</ele>
        <time>2019-08-22T09:53:21Z</time>
      </trkpt>
      <trkpt lat="44.01115" lon="7.24894">
        <ele>1747.81</ele>
        <time>2019-08-22T09:55:07Z</time>
      </trkpt>
      <trkpt lat="44.01091" lon="7.24856">
        <ele>1739.16</ele>
        <time>2019-08-22T09:56:41Z</time>
      </trkpt>
      <trkpt lat="44.01027" lon="7.2483">
        <ele>1723.3</ele>
        <time>2019-08-22T09:58:47Z</time>
      </trkpt>
      <trkpt lat="44.00962" lon="7.24784">
        <ele>1698.31</ele>
        <time>2019-08-22T10:01:31Z</time>
      </trkpt>
      <trkpt lat="44.00922" lon="7.24794">
        <ele>1689.17</ele>
        <time>2019-08-22T10:17:54Z</time>
      </trkpt>
      <trkpt lat="44.00925" lon="7.24695">
        <ele>1685.81</ele>
        <time>2019-08-22T10:19:30Z</time>
      </trkpt>
      <trkpt lat="44.00908" lon="7.24567">
        <ele>1684.85</ele>
        <time>2019-08-22T10:20:59Z</time>
      </trkpt>
      <trkpt lat="44.00897" lon="7.24444">
        <ele>1684.85</ele>
        <time>2019-08-22T10:22:23Z</time>
      </trkpt>
      <trkpt lat="44.00921" lon="7.24314">
        <ele>1680.52</ele>
        <time>2019-08-22T10:23:50Z</time>
      </trkpt>
      <trkpt lat="44.00951" lon="7.24195">
        <ele>1679.08</ele>
        <time>2019-08-22T10:25:11Z</time>
      </trkpt>
      <trkpt lat="44.00994" lon="7.24082">
        <ele>1675.72</ele>
        <time>2019-08-22T10:26:33Z</time>
      </trkpt>
      <trkpt lat="44.01016" lon="7.23967">
        <ele>1675.72</ele>
        <time>2019-08-22T10:28:30Z</time>
      </trkpt>
      <trkpt lat="44.01012" lon="7.23839">
        <ele>1677.16</ele>
        <time>2019-08-22T10:30:24Z</time>
      </trkpt>
      <trkpt lat="44.00969" lon="7.23733">
        <ele>1677.64</ele>
        <time>2019-08-22T10:31:53Z</time>
      </trkpt>
      <trkpt lat="44.00887" lon="7.23648">
        <ele>1673.31</ele>
        <time>2019-08-22T10:33:26Z</time>
      </trkpt>
      <trkpt lat="44.00794" lon="7.23645">
        <ele>1669.95</ele>
        <time>2019-08-22T10:35:01Z</time>
      </trkpt>
      <trkpt lat="44.00697" lon="7.23643">
        <ele>1667.54</ele>
        <time>2019-08-22T10:36:45Z</time>
      </trkpt>
      <trkpt lat="44.00597" lon="7.23631">
        <ele>1665.62</ele>
        <time>2019-08-22T10:38:17Z</time>
      </trkpt>
      <trkpt lat="44.00517" lon="7.23575">
        <ele>1665.62</ele>
        <time>2019-08-22T10:39:46Z</time>
      </trkpt>
      <trkpt lat="44.00431" lon="7.23522">
        <ele>1665.14</ele>
        <time>2019-08-22T10:41:15Z</time>
      </trkpt>
      <trkpt lat="44.00337" lon="7.23515">
        <ele>1665.14</ele>
        <time>2019-08-22T10:42:43Z</time>
      </trkpt>
      <trkpt lat="44.00231" lon="7.23527">
        <ele>1666.58</ele>
        <time>2019-08-22T10:44:30Z</time>
      </trkpt>
      <trkpt lat="44.00134" lon="7.23576">
        <ele>1672.83</ele>
        <time>2019-08-22T10:46:21Z</time>
      </trkpt>
      <trkpt lat="44.00061" lon="7.23652">
        <ele>1679.56</ele>
        <time>2019-08-22T10:48:15Z</time>
      </trkpt>
      <trkpt lat="43.99984" lon="7.23651">
        <ele>1684.85</ele>
        <time>2019-08-22T10:50:38Z</time>
      </trkpt>
      <trkpt lat="43.99894" lon="7.23623">
        <ele>1688.21</ele>
        <time>2019-08-22T10:52:09Z</time>
      </trkpt>
      <trkpt lat="43.99815" lon="7.23632">
        <ele>1681.48</ele>
        <time>2019-08-22T10:54:16Z</time>
      </trkpt>
      <trkpt lat="43.99724" lon="7.23651">
        <ele>1671.87</ele>
        <time>2019-08-22T10:56:06Z</time>
      </trkpt>
      <trkpt lat="43.99634" lon="7.23694">
        <ele>1661.78</ele>
        <time>2019-08-22T10:57:39Z</time>
      </trkpt>
      <trkpt lat="43.99546" lon="7.23684">
        <ele>1652.64</ele>
        <time>2019-08-22T10:59:25Z</time>
      </trkpt>
      <trkpt lat="43.99453" lon="7.23628">
        <ele>1643.51</ele>
        <time>2019-08-22T11:03:15Z</time>
      </trkpt>
      <trkpt lat="43.99348" lon="7.23643">
        <ele>1633.42</ele>
        <time>2019-08-22T11:05:07Z</time>
      </trkpt>
      <trkpt lat="43.99239" lon="7.23699">
        <ele>1621.4</ele>
        <time>2019-08-22T11:07:17Z</time>
      </trkpt>
      <trkpt lat="43.99302" lon="7.23611">
        <ele>1611.79</ele>
        <time>2019-08-22T11:09:42Z</time>
      </trkpt>
      <trkpt lat="43.99371" lon="7.23521">
        <ele>1601.69</ele>
        <time>2019-08-22T11:11:15Z</time>
      </trkpt>
      <trkpt lat="43.99464" lon="7.23486">
        <ele>1592.08</ele>
        <time>2019-08-22T11:12:55Z</time>
      </trkpt>
      <trkpt lat="43.9954" lon="7.23434">
        <ele>1584.39</ele>
        <time>2019-08-22T11:14:58Z</time>
      </trkpt>
      <trkpt lat="43.99504" lon="7.23367">
        <ele>1574.78</ele>
        <time>2019-08-22T11:16:36Z</time>
      </trkpt>
      <trkpt lat="43.99416" lon="7.23309">
        <ele>1556.99</ele>
        <time>2019-08-22T11:19:00Z</time>
      </trkpt>
      <trkpt lat="43.99331" lon="7.23224">
        <ele>1532.48</ele>
        <time>2019-08-22T11:22:01Z</time>
      </trkpt>
      <trkpt lat="43.99249" lon="7.2319">
        <ele>1511.33</ele>
        <time>2019-08-22T11:24:39Z</time>
      </trkpt>
      <trkpt lat="43.99164" lon="7.23172">
        <ele>1491.62</ele>
        <time>2019-08-22T11:27:25Z</time>
      </trkpt>
      <trkpt lat="43.9907" lon="7.23198">
        <ele>1482.01</ele>
        <time>2019-08-22T11:29:21Z</time>
      </trkpt>
      <trkpt lat="43.99018" lon="7.23164">
        <ele>1466.15</ele>
        <time>2019-08-22T11:32:01Z</time>
      </trkpt>
      <trkpt lat="43.98954" lon="7.23142">
        <ele>1444.04</ele>
        <time>2019-08-22T11:34:50Z</time>
      </trkpt>
      <trkpt lat="43.98866" lon="7.23165">
        <ele>1430.1</ele>
        <time>2019-08-22T11:37:23Z</time>
      </trkpt>
      <trkpt lat="43.98802" lon="7.23164">
        <ele>1412.31</ele>
        <time>2019-08-22T11:40:29Z</time>
      </trkpt>
      <trkpt lat="43.98756" lon="7.23158">
        <ele>1389.24</ele>
        <time>2019-08-22T11:43:50Z</time>
      </trkpt>
      <trkpt lat="43.98679" lon="7.23216">
        <ele>1376.26</ele>
        <time>2019-08-22T11:46:03Z</time>
      </trkpt>
      <trkpt lat="43.9859" lon="7.23246">
        <ele>1370.98</ele>
        <time>2019-08-22T11:47:46Z</time>
      </trkpt>
      <trkpt lat="43.98529" lon="7.23335">
        <ele>1368.09</ele>
        <time>2019-08-22T11:54:31Z</time>
      </trkpt>
      <trkpt lat="43.98458" lon="7.23412">
        <ele>1376.26</ele>
        <time>2019-08-22T11:56:46Z</time>
      </trkpt>
      <trkpt lat="43.98385" lon="7.23499">
        <ele>1383.96</ele>
        <time>2019-08-22T11:59:08Z</time>
      </trkpt>
      <trkpt lat="43.98303" lon="7.23556">
        <ele>1384.92</ele>
        <time>2019-08-22T12:00:45Z</time>
      </trkpt>
      <trkpt lat="43.98219" lon="7.23598">
        <ele>1386.36</ele>
        <time>2019-08-22T12:02:21Z</time>
      </trkpt>
      <trkpt lat="43.98128" lon="7.23571">
        <ele>1391.17</ele>
        <time>2019-08-22T12:04:16Z</time>
      </trkpt>
      <trkpt lat="43.98045" lon="7.23498">
        <ele>1393.09</ele>
        <time>2019-08-22T12:06:02Z</time>
      </trkpt>
      <trkpt lat="43.97963" lon="7.23432">
        <ele>1398.37</ele>
        <time>2019-08-22T12:08:04Z</time>
      </trkpt>
      <trkpt lat="43.97872" lon="7.23444">
        <ele>1402.7</ele>
        <time>2019-08-22T12:09:58Z</time>
      </trkpt>
      <trkpt lat="43.97787" lon="7.23499">
        <ele>1403.18</ele>
        <time>2019-08-22T12:11:53Z</time>
      </trkpt>
      <trkpt lat="43.97729" lon="7.2358">
        <ele>1408.47</ele>
        <time>2019-08-22T12:13:59Z</time>
      </trkpt>
      <trkpt lat="43.97664" lon="7.23683">
        <ele>1422.89</ele>
        <time>2019-08-22T12:16:40Z</time>
      </trkpt>
      <trkpt lat="43.9758" lon="7.23671">
        <ele>1423.85</ele>
        <time>2019-08-22T12:18:34Z</time>
      </trkpt>
      <trkpt lat="43.97493" lon="7.23687">
        <ele>1418.56</ele>
        <time>2019-08-22T12:20:22Z</time>
      </trkpt>
      <trkpt lat="43.97407" lon="7.23722">
        <ele>1416.64</ele>
        <time>2019-08-22T12:22:44Z</time>
      </trkpt>
      <trkpt lat="43.97323" lon="7.23749">
        <ele>1421.93</ele>
        <time>2019-08-22T12:24:55Z</time>
      </trkpt>
      <trkpt lat="43.97282" lon="7.23846">
        <ele>1416.64</ele>
        <time>2019-08-22T12:26:55Z</time>
      </trkpt>
      <trkpt lat="43.972" lon="7.23914">
        <ele>1412.79</ele>
        <time>2019-08-22T12:28:36Z</time>
      </trkpt>
      <trkpt lat="43.97114" lon="7.23942">
        <ele>1415.2</ele>
        <time>2019-08-22T12:30:26Z</time>
      </trkpt>
      <trkpt lat="43.9706" lon="7.23853">
        <ele>1407.51</ele>
        <time>2019-08-22T12:33:50Z</time>
      </trkpt>
      <trkpt lat="43.96989" lon="7.23801">
        <ele>1407.03</ele>
        <time>2019-08-22T12:35:47Z</time>
      </trkpt>
      <trkpt lat="43.96912" lon="7.23757">
        <ele>1407.51</ele>
        <time>2019-08-22T12:37:36Z</time>
      </trkpt>
      <trkpt lat="43.96821" lon="7.23753">
        <ele>1416.64</ele>
        <time>2019-08-22T12:40:01Z</time>
      </trkpt>
      <trkpt lat="43.96727" lon="7.23768">
        <ele>1418.08</ele>
        <time>2019-08-22T12:41:49Z</time>
      </trkpt>
      <trkpt lat="43.96649" lon="7.2378">
        <ele>1416.64</ele>
        <time>2019-08-22T12:48:48Z</time>
      </trkpt>
      <trkpt lat="43.96551" lon="7.23791">
        <ele>1426.25</ele>
        <time>2019-08-22T12:50:55Z</time>
      </trkpt>
      <trkpt lat="43.96467" lon="7.23853">
        <ele>1427.7</ele>
        <time>2019-08-22T12:52:43Z</time>
      </trkpt>
      <trkpt lat="43.96387" lon="7.23899">
        <ele>1417.12</ele>
        <time>2019-08-22T12:54:30Z</time>
      </trkpt>
      <trkpt lat="43.96302" lon="7.23943">
        <ele>1413.28</ele>
        <time>2019-08-22T12:56:02Z</time>
      </trkpt>
      <trkpt lat="43.96231" lon="7.24011">
        <ele>1409.43</ele>
        <time>2019-08-22T12:57:31Z</time>
      </trkpt>
      <trkpt lat="43.9616" lon="7.24073">
        <ele>1405.1</ele>
        <time>2019-08-22T12:59:18Z</time>
      </trkpt>
      <trkpt lat="43.96087" lon="7.24142">
        <ele>1402.7</ele>
        <time>2019-08-22T13:01:00Z</time>
      </trkpt>
      <trkpt lat="43.96009" lon="7.24243">
        <ele>1402.7</ele>
        <time>2019-08-22T13:03:41Z</time>
      </trkpt>
      <trkpt lat="43.9593" lon="7.24301">
        <ele>1401.74</ele>
        <time>2019-08-22T13:05:21Z</time>
      </trkpt>
      <trkpt lat="43.95839" lon="7.24323">
        <ele>1409.91</ele>
        <time>2019-08-22T13:07:38Z</time>
      </trkpt>
      <trkpt lat="43.95746" lon="7.24297">
        <ele>1414.72</ele>
        <time>2019-08-22T13:09:36Z</time>
      </trkpt>
      <trkpt lat="43.95659" lon="7.2426">
        <ele>1420.49</ele>
        <time>2019-08-22T13:11:24Z</time>
      </trkpt>
      <trkpt lat="43.9558" lon="7.24205">
        <ele>1430.1</ele>
        <time>2019-08-22T13:13:27Z</time>
      </trkpt>
      <trkpt lat="43.95496" lon="7.24188">
        <ele>1439.71</ele>
        <time>2019-08-22T13:15:23Z</time>
      </trkpt>
      <trkpt lat="43.95434" lon="7.24218">
        <ele>1464.71</ele>
        <time>2019-08-22T13:19:12Z</time>
      </trkpt>
      <trkpt lat="43.95369" lon="7.24265">
        <ele>1480.09</ele>
        <time>2019-08-22T13:22:26Z</time>
      </trkpt>
      <trkpt lat="43.95283" lon="7.24274">
        <ele>1487.78</ele>
        <time>2019-08-22T13:24:50Z</time>
      </trkpt>
      <trkpt lat="43.95201" lon="7.24295">
        <ele>1492.58</ele>
        <time>2019-08-22T13:27:36Z</time>
      </trkpt>
      <trkpt lat="43.95161" lon="7.24329">
        <ele>1519.5</ele>
        <time>2019-08-22T13:32:35Z</time>
      </trkpt>
      <trkpt lat="43.95099" lon="7.24371">
        <ele>1532</ele>
        <time>2019-08-22T13:36:00Z</time>
      </trkpt>
      <trkpt lat="43.95037" lon="7.24323">
        <ele>1532.96</ele>
        <time>2019-08-22T13:39:40Z</time>
      </trkpt>
      <trkpt lat="43.94961" lon="7.24354">
        <ele>1519.02</ele>
        <time>2019-08-22T13:41:57Z</time>
      </trkpt>
      <trkpt lat="43.94893" lon="7.24397">
        <ele>1505.56</ele>
        <time>2019-08-22T13:44:20Z</time>
      </trkpt>
      <trkpt lat="43.94887" lon="7.24345">
        <ele>1484.89</ele>
        <time>2019-08-22T13:47:14Z</time>
      </trkpt>
      <trkpt lat="43.94831" lon="7.24393">
        <ele>1469.51</ele>
        <time>2019-08-22T13:49:39Z</time>
      </trkpt>
      <trkpt lat="43.94787" lon="7.24401">
        <ele>1451.73</ele>
        <time>2019-08-22T13:52:33Z</time>
      </trkpt>
      <trkpt lat="43.94755" lon="7.24359">
        <ele>1426.73</ele>
        <time>2019-08-22T13:55:36Z</time>
      </trkpt>
      <trkpt lat="43.94708" lon="7.24338">
        <ele>1407.03</ele>
        <time>2019-08-22T13:58:13Z</time>
      </trkpt>
      <trkpt lat="43.94674" lon="7.24298">
        <ele>1384.92</ele>
        <time>2019-08-22T14:01:03Z</time>
      </trkpt>
      <trkpt lat="43.94614" lon="7.24224">
        <ele>1374.82</ele>
        <time>2019-08-22T14:03:25Z</time>
      </trkpt>
      <trkpt lat="43.94552" lon="7.24103">
        <ele>1371.46</ele>
        <time>2019-08-22T14:05:04Z</time>
      </trkpt>
      <trkpt lat="43.94538" lon="7.23976">
        <ele>1370.02</ele>
        <time>2019-08-22T14:06:41Z</time>
      </trkpt>
      <trkpt lat="43.94451" lon="7.24016">
        <ele>1362.33</ele>
        <time>2019-08-22T14:08:06Z</time>
      </trkpt>
      <trkpt lat="43.94346" lon="7.2401">
        <ele>1360.4</ele>
        <time>2019-08-22T14:09:31Z</time>
      </trkpt>
      <trkpt lat="43.94249" lon="7.23988">
        <ele>1352.23</ele>
        <time>2019-08-22T14:10:40Z</time>
      </trkpt>
      <trkpt lat="43.9424" lon="7.23853">
        <ele>1344.54</ele>
        <time>2019-08-22T14:11:58Z</time>
      </trkpt>
      <trkpt lat="43.94272" lon="7.23738">
        <ele>1334.45</ele>
        <time>2019-08-22T14:13:14Z</time>
      </trkpt>
      <trkpt lat="43.94232" lon="7.2379">
        <ele>1322.43</ele>
        <time>2019-08-22T14:14:39Z</time>
      </trkpt>
      <trkpt lat="43.94175" lon="7.23864">
        <ele>1312.82</ele>
        <time>2019-08-22T14:16:00Z</time>
      </trkpt>
      <trkpt lat="43.94087" lon="7.2384">
        <ele>1300.32</ele>
        <time>2019-08-22T14:17:29Z</time>
      </trkpt>
      <trkpt lat="43.94051" lon="7.23936">
        <ele>1287.82</ele>
        <time>2019-08-22T14:18:53Z</time>
      </trkpt>
      <trkpt lat="43.93969" lon="7.23959">
        <ele>1276.29</ele>
        <time>2019-08-22T14:20:14Z</time>
      </trkpt>
      <trkpt lat="43.93884" lon="7.24">
        <ele>1272.92</ele>
        <time>2019-08-22T14:21:26Z</time>
      </trkpt>
      <trkpt lat="43.93804" lon="7.23983">
        <ele>1264.75</ele>
        <time>2019-08-22T14:22:49Z</time>
      </trkpt>
      <trkpt lat="43.93801" lon="7.24085">
        <ele>1253.22</ele>
        <time>2019-08-22T14:24:19Z</time>
      </trkpt>
      <trkpt lat="43.93785" lon="7.24199">
        <ele>1244.56</ele>
        <time>2019-08-22T14:25:45Z</time>
      </trkpt>
      <trkpt lat="43.93711" lon="7.24256">
        <ele>1237.35</ele>
        <time>2019-08-22T14:27:08Z</time>
      </trkpt>
      <trkpt lat="43.93649" lon="7.24326">
        <ele>1231.59</ele>
        <time>2019-08-22T14:28:31Z</time>
      </trkpt>
      <trkpt lat="43.93565" lon="7.24354">
        <ele>1227.26</ele>
        <time>2019-08-22T14:30:15Z</time>
      </trkpt>
      <trkpt lat="43.93474" lon="7.24328">
        <ele>1225.82</ele>
        <time>2019-08-22T14:31:41Z</time>
      </trkpt>
      <trkpt lat="43.93401" lon="7.24327">
        <ele>1220.05</ele>
        <time>2019-08-22T14:33:25Z</time>
      </trkpt>
      <trkpt lat="43.93324" lon="7.24378">
        <ele>1206.11</ele>
        <time>2019-08-22T14:34:53Z</time>
      </trkpt>
      <trkpt lat="43.93248" lon="7.24423">
        <ele>1184</ele>
        <time>2019-08-22T14:36:50Z</time>
      </trkpt>
      <trkpt lat="43.93186" lon="7.24505">
        <ele>1165.26</ele>
        <time>2019-08-22T14:38:34Z</time>
      </trkpt>
      <trkpt lat="43.93113" lon="7.24526">
        <ele>1147.95</ele>
        <time>2019-08-22T14:40:25Z</time>
      </trkpt>
      <trkpt lat="43.93034" lon="7.24496">
        <ele>1135.45</ele>
        <time>2019-08-22T14:42:06Z</time>
      </trkpt>
      <trkpt lat="43.92955" lon="7.24497">
        <ele>1119.11</ele>
        <time>2019-08-22T14:43:59Z</time>
      </trkpt>
      <trkpt lat="43.92878" lon="7.2452">
        <ele>1110.94</ele>
        <time>2019-08-22T14:45:38Z</time>
      </trkpt>
      <trkpt lat="43.92804" lon="7.24525">
        <ele>1100.37</ele>
        <time>2019-08-22T14:47:21Z</time>
      </trkpt>
      <trkpt lat="43.92735" lon="7.24505">
        <ele>1086.43</ele>
        <time>2019-08-22T14:49:16Z</time>
      </trkpt>
      <trkpt lat="43.9267" lon="7.24443">
        <ele>1089.79</ele>
        <time>2019-08-22T14:50:55Z</time>
      </trkpt>
      <trkpt lat="43.92594" lon="7.24451">
        <ele>1076.81</ele>
        <time>2019-08-22T14:52:56Z</time>
      </trkpt>
      <trkpt lat="43.92534" lon="7.24417">
        <ele>1052.78</ele>
        <time>2019-08-22T14:55:12Z</time>
      </trkpt>
      <trkpt lat="43.92495" lon="7.24469">
        <ele>1028.27</ele>
        <time>2019-08-22T14:57:31Z</time>
      </trkpt>
      <trkpt lat="43.92452" lon="7.24512">
        <ele>1005.2</ele>
        <time>2019-08-22T14:59:40Z</time>
      </trkpt>
      <trkpt lat="43.92399" lon="7.24568">
        <ele>985.97</ele>
        <time>2019-08-22T15:01:42Z</time>
      </trkpt>
      <trkpt lat="43.92341" lon="7.24502">
        <ele>973.47</ele>
        <time>2019-08-22T15:03:41Z</time>
      </trkpt>
      <trkpt lat="43.92314" lon="7.24429">
        <ele>949.92</ele>
        <time>2019-08-22T15:06:33Z</time>
      </trkpt>
      <trkpt lat="43.92259" lon="7.2439">
        <ele>930.21</ele>
        <time>2019-08-22T15:08:43Z</time>
      </trkpt>
      <trkpt lat="43.92196" lon="7.24333">
        <ele>916.75</ele>
        <time>2019-08-22T15:10:36Z</time>
      </trkpt>
      <trkpt lat="43.92131" lon="7.2438">
        <ele>897.53</ele>
        <time>2019-08-22T15:12:45Z</time>
      </trkpt>
      <trkpt lat="43.92062" lon="7.24365">
        <ele>872.53</ele>
        <time>2019-08-22T15:15:00Z</time>
      </trkpt>
      <trkpt lat="43.92022" lon="7.2443">
        <ele>856.19</ele>
        <time>2019-08-22T15:17:14Z</time>
      </trkpt>
      <trkpt lat="43.9195" lon="7.24482">
        <ele>842.25</ele>
        <time>2019-08-22T15:19:02Z</time>
      </trkpt>
      <trkpt lat="43.91878" lon="7.24533">
        <ele>826.39</ele>
        <time>2019-08-22T15:21:42Z</time>
      </trkpt>
    </trkseg>
  </trk>
</gpx>